Time;durP1;ratioP1;P1;durP2;ratioP2;P2;SDS_P1;SDS_P2;PMS_P1;PMS_P2;Temp;Humidity;BMP_temperature;BMP_pressure;BME280_temperature;BME280_humidity;BME280_pressure;Samples;Min_cycle;Max_cycle;Signal;HPM_P1;HPM_P2
2023/09/05 00:01:52;;;;;;;;;;;;;;;;;;5056228;28;19908;-20
2023/09/05 00:04:18;;;;;;;;;;;;;;;;;;5056069;28;20315;-20
2023/09/05 00:06:44;;;;;;;;;;;;;;;;;;5056198;28;19921;-21
2023/09/05 00:09:10;;;;;;;;;;;;;;;;;;5056118;28;19909;-21
2023/09/05 00:11:36;;;;;;;;;;;;;;;;;;5055986;28;19919;-22
2023/09/05 00:14:02;;;;;;;;;;;;;;;;;;5055883;28;19967;-21
2023/09/05 00:16:28;;;;;;;;;;;;;;;;;;5055939;28;19923;-20
2023/09/05 00:18:54;;;;;;;;;;;;;;;;;;5054907;28;19923;-21
2023/09/05 00:21:20;;;;;;;;;;;;;;;;;;5056125;28;20388;-20
2023/09/05 00:23:46;;;;;;;;;;;;;;;;;;5055826;28;19976;-23
2023/09/05 00:26:12;;;;;;;;;;;;;;;;;;5054763;28;20217;-20
2023/09/05 00:28:38;;;;;;;;;;;;;;;;;;5055725;28;20267;-21
2023/09/05 00:31:04;;;;;;;;;;;;;;;;;;5055640;28;20354;-20
2023/09/05 00:33:30;;;;;;;;;;;;;;;;;;5055552;28;20291;-21
2023/09/05 00:35:56;;;;;;;;;;;;;;;;;;5056018;28;19909;-21
2023/09/05 00:38:25;;;;;;;;;;;;;;;;;;5054464;28;19940;-22
2023/09/05 00:40:51;;;;;;;;;;;;;;;;;;5055786;28;19909;-20
2023/09/05 00:43:20;;;;;;;;;;;;;;;;;;5055422;28;19909;-19
2023/09/05 00:45:49;;;;;;;;;;;;;;;;;;5055678;28;19937;-22
2023/09/05 00:48:15;;;;;;;;;;;;;;;;;;5055331;28;19916;-21
2023/09/05 00:50:41;;;;;;;;;;;;;;;;;;5055293;28;19909;-22
2023/09/05 00:53:07;;;;;;;;;;;;;;;;;;5055206;28;19995;-20
2023/09/05 00:55:33;;;;;;;;;;;;;;;;;;5055161;28;20351;-19
2023/09/05 00:58:00;;;;;;;;;;;;;;;;;;5055069;28;19913;-21
2023/09/05 01:00:26;;;;;;;;;;;;;;;;;;5055155;28;19970;-20
2023/09/05 01:02:52;;;;;;;;;;;;;;;;;;5055225;28;19925;-21
2023/09/05 01:05:18;;;;;;;;;;;;;;;;;;5055106;28;19921;-20
2023/09/05 01:07:44;;;;;;;;;;;;;;;;;;5054137;28;20007;-20
2023/09/05 01:10:10;;;;;;;;;;;;;;;;;;5055200;28;20010;-21
2023/09/05 01:12:36;;;;;;;;;;;;;;;;;;5054843;28;19909;-21
2023/09/05 01:15:02;;;;;;;;;;;;;;;;;;5054957;28;19909;-21
2023/09/05 01:17:28;;;;;;;;;;;;;;;;;;5054758;28;20336;-22
2023/09/05 01:19:54;;;;;;;;;;;;;;;;;;5055080;28;20256;-21
2023/09/05 01:22:20;;;;;;;;;;;;;;;;;;5054650;28;19909;-21
2023/09/05 01:24:49;;;;;;;;;;;;;;;;;;5054693;28;19992;-21
2023/09/05 01:27:19;;;;;;;;;;;;;;;;;;5054664;28;19917;-20
2023/09/05 01:29:45;;;;;;;;;;;;;;;;;;5054713;28;19909;-20
2023/09/05 01:32:11;;;;;;;;;;;;;;;;;;5054569;28;19913;-21
2023/09/05 01:34:37;;;;;;;;;;;;;;;;;;5054840;28;19958;-21
2023/09/05 01:37:03;;;;;;;;;;;;;;;;;;5054562;28;20294;-20
2023/09/05 01:39:29;;;;;;;;;;;;;;;;;;5054505;28;19916;-22
2023/09/05 01:41:55;;;;;;;;;;;;;;;;;;5054449;28;19966;-21
2023/09/05 01:44:21;;;;;;;;;;;;;;;;;;5054550;28;19944;-20
2023/09/05 01:46:47;;;;;;;;;;;;;;;;;;5054644;28;19909;-20
2023/09/05 01:49:13;;;;;;;;;;;;;;;;;;5053400;28;19935;-20
2023/09/05 01:51:39;;;;;;;;;;;;;;;;;;5054658;28;20007;-21
2023/09/05 01:54:04;;;;;;;;;;;;;;;;;;5054598;28;19992;-21
2023/09/05 01:56:30;;;;;;;;;;;;;;;;;;5054355;28;19924;-20
2023/09/05 01:58:56;;;;;;;;;;;;;;;;;;5054668;28;20373;-20
2023/09/05 02:01:22;;;;;;;;;;;;;;;;;;5054342;28;20247;-24
2023/09/05 02:03:48;;;;;;;;;;;;;;;;;;5054048;28;19947;-20
2023/09/05 02:06:15;;;;;;;;;;;;;;;;;;5054596;28;19909;-23
2023/09/05 02:08:41;;;;;;;;;;;;;;;;;;5054279;28;19995;-21
2023/09/05 02:11:09;;;;;;;;;;;;;;;;;;5054263;28;19951;-20
2023/09/05 02:13:35;;;;;;;;;;;;;;;;;;5053071;28;19909;-20
2023/09/05 02:16:01;;;;;;;;;;;;;;;;;;5054060;28;19916;-21
2023/09/05 02:18:27;;;;;;;;;;;;;;;;;;5055776;28;19925;-21
2023/09/05 02:20:53;;;;;;;;;;;;;;;;;;5058118;28;19909;-22
2023/09/05 02:23:19;;;;;;;;;;;;;;;;;;5058069;28;19909;-20
2023/09/05 02:25:45;;;;;;;;;;;;;;;;;;5058070;28;19909;-20
2023/09/05 02:28:11;;;;;;;;;;;;;;;;;;5058035;28;19936;-21
2023/09/05 02:30:40;;;;;;;;;;;;;;;;;;5057997;28;19909;-21
2023/09/05 02:33:08;;;;;;;;;;;;;;;;;;5057885;28;20265;-21
2023/09/05 02:35:34;;;;;;;;;;;;;;;;;;5057850;28;19912;-20
2023/09/05 02:38:00;;;;;;;;;;;;;;;;;;5056766;28;19913;-20
2023/09/05 02:40:26;;;;;;;;;;;;;;;;;;5058050;28;20228;-20
2023/09/05 02:42:52;;;;;;;;;;;;;;;;;;5057899;28;20012;-20
2023/09/05 02:45:18;;;;;;;;;;;;;;;;;;5057706;28;20208;-22
2023/09/05 02:47:44;;;;;;;;;;;;;;;;;;5057696;28;20344;-20
2023/09/05 02:50:10;;;;;;;;;;;;;;;;;;5056540;28;19970;-21
2023/09/05 02:52:36;;;;;;;;;;;;;;;;;;5057443;28;19908;-20
2023/09/05 02:55:03;;;;;;;;;;;;;;;;;;5057512;28;20058;-22
2023/09/05 02:57:29;;;;;;;;;;;;;;;;;;5057397;28;19912;-21
2023/09/05 02:59:54;;;;;;;;;;;;;;;;;;5057389;28;19909;-20
2023/09/05 03:02:20;;;;;;;;;;;;;;;;;;5057090;28;19909;-22
2023/09/05 03:04:46;;;;;;;;;;;;;;;;;;5057513;28;19920;-21
2023/09/05 03:07:15;;;;;;;;;;;;;;;;;;5057277;28;20014;-21
2023/09/05 03:09:41;;;;;;;;;;;;;;;;;;5057267;28;19920;-20
2023/09/05 03:12:07;;;;;;;;;;;;;;;;;;5057361;28;19909;-21
2023/09/05 03:14:33;;;;;;;;;;;;;;;;;;5057184;28;19920;-19
2023/09/05 03:16:59;;;;;;;;;;;;;;;;;;5056990;28;19924;-20
2023/09/05 03:19:25;;;;;;;;;;;;;;;;;;5057156;28;19959;-22
2023/09/05 03:21:51;;;;;;;;;;;;;;;;;;5056924;28;20252;-19
2023/09/05 03:24:17;;;;;;;;;;;;;;;;;;5056948;28;20259;-21
2023/09/05 03:26:43;;;;;;;;;;;;;;;;;;5056780;28;20008;-22
2023/09/05 03:29:09;;;;;;;;;;;;;;;;;;5056239;28;19909;-20
2023/09/05 03:31:35;;;;;;;;;;;;;;;;;;5056433;28;19970;-20
2023/09/05 03:34:02;;;;;;;;;;;;;;;;;;5056730;28;19909;-21
2023/09/05 03:36:28;;;;;;;;;;;;;;;;;;5056602;28;19909;-22
2023/09/05 03:38:54;;;;;;;;;;;;;;;;;;5055575;28;19939;-21
2023/09/05 03:41:19;;;;;;;;;;;;;;;;;;5056573;28;19909;-20
2023/09/05 03:43:45;;;;;;;;;;;;;;;;;;5056464;28;19919;-20
2023/09/05 03:46:12;;;;;;;;;;;;;;;;;;5056048;28;19909;-19
2023/09/05 03:48:38;;;;;;;;;;;;;;;;;;5055344;28;19941;-21
2023/09/05 03:51:04;;;;;;;;;;;;;;;;;;5056337;28;19967;-20
2023/09/05 03:53:31;;;;;;;;;;;;;;;;;;5055149;28;19909;-20
2023/09/05 03:55:57;;;;;;;;;;;;;;;;;;5056166;28;20000;-23
2023/09/05 03:58:23;;;;;;;;;;;;;;;;;;5055076;28;20011;-22
2023/09/05 04:00:49;;;;;;;;;;;;;;;;;;5056201;28;19909;-21
2023/09/05 04:03:16;;;;;;;;;;;;;;;;;;5055795;28;20020;-21
2023/09/05 04:05:41;;;;;;;;;;;;;;;;;;5056086;28;20260;-21
2023/09/05 04:08:07;;;;;;;;;;;;;;;;;;5056287;28;19988;-22
2023/09/05 04:10:34;;;;;;;;;;;;;;;;;;5056074;28;19909;-20
2023/09/05 04:13:00;;;;;;;;;;;;;;;;;;5055968;28;19948;-22
2023/09/05 04:15:26;;;;;;;;;;;;;;;;;;5055721;28;19966;-20
2023/09/05 04:17:52;;;;;;;;;;;;;;;;;;5056003;28;20251;-22
2023/09/05 04:20:18;;;;;;;;;;;;;;;;;;5055783;28;19909;-19
2023/09/05 04:22:44;;;;;;;;;;;;;;;;;;5055688;28;20000;-20
2023/09/05 04:25:10;;;;;;;;;;;;;;;;;;5055902;28;19944;-20
2023/09/05 04:27:36;;;;;;;;;;;;;;;;;;5055886;28;20289;-22
2023/09/05 04:30:02;;;;;;;;;;;;;;;;;;5054526;28;19948;-20
2023/09/05 04:32:30;;;;;;;;;;;;;;;;;;5055309;28;19909;-20
2023/09/05 04:34:56;;;;;;;;;;;;;;;;;;5055670;28;19996;-22
2023/09/05 04:37:22;;;;;;;;;;;;;;;;;;5055735;28;19923;-22
2023/09/05 04:39:49;;;;;;;;;;;;;;;;;;5055465;28;19951;-20
2023/09/05 04:42:15;;;;;;;;;;;;;;;;;;5055242;28;19916;-20
2023/09/05 04:44:40;;;;;;;;;;;;;;;;;;5055149;28;19909;-19
2023/09/05 04:47:06;;;;;;;;;;;;;;;;;;5055154;28;19909;-21
2023/09/05 04:49:32;;;;;;;;;;;;;;;;;;5055027;28;20197;-22
2023/09/05 04:51:58;;;;;;;;;;;;;;;;;;5054868;28;20252;-21
2023/09/05 04:54:24;;;;;;;;;;;;;;;;;;5053890;28;20240;-21
2023/09/05 04:56:51;;;;;;;;;;;;;;;;;;5054744;28;20007;-22
2023/09/05 04:59:17;;;;;;;;;;;;;;;;;;5054995;28;20310;-21
2023/09/05 05:01:43;;;;;;;;;;;;;;;;;;5055232;28;19916;-20
2023/09/05 05:04:09;;;;;;;;;;;;;;;;;;5053813;28;19927;-20
2023/09/05 05:06:35;;;;;;;;;;;;;;;;;;5054901;28;19948;-20
2023/09/05 05:09:01;;;;;;;;;;;;;;;;;;5055035;28;19924;-21
2023/09/05 05:11:27;;;;;;;;;;;;;;;;;;5054906;28;19909;-21
2023/09/05 05:13:53;;;;;;;;;;;;;;;;;;5054761;28;19943;-20
2023/09/05 05:16:19;;;;;;;;;;;;;;;;;;5054772;28;19920;-21
2023/09/05 05:18:45;;;;;;;;;;;;;;;;;;5054659;28;19932;-20
2023/09/05 05:21:11;;;;;;;;;;;;;;;;;;5054758;28;20320;-22
2023/09/05 05:23:37;;;;;;;;;;;;;;;;;;5054591;28;19920;-20
2023/09/05 05:26:03;;;;;;;;;;;;;;;;;;5053519;28;19919;-22
2023/09/05 05:28:29;;;;;;;;;;;;;;;;;;5054824;28;20355;-22
2023/09/05 05:30:55;;;;;;;;;;;;;;;;;;5053516;28;20012;-20
2023/09/05 05:33:21;;;;;;;;;;;;;;;;;;5054428;28;19915;-20
2023/09/05 05:35:47;;;;;;;;;;;;;;;;;;5054302;28;20364;-23
2023/09/05 05:38:13;;;;;;;;;;;;;;;;;;5054297;28;20011;-20
2023/09/05 05:40:39;;;;;;;;;;;;;;;;;;5053168;28;19928;-21
2023/09/05 05:43:05;;;;;;;;;;;;;;;;;;5053978;28;19909;-20
2023/09/05 05:45:31;;;;;;;;;;;;;;;;;;5054333;28;20388;-21
2023/09/05 05:47:57;;;;;;;;;;;;;;;;;;5054368;28;19915;-20
2023/09/05 05:50:23;;;;;;;;;;;;;;;;;;5053776;28;19920;-22
2023/09/05 05:52:49;;;;;;;;;;;;;;;;;;5053007;28;19909;-22
2023/09/05 05:55:14;;;;;;;;;;;;;;;;;;5053905;28;19915;-20
2023/09/05 05:57:40;;;;;;;;;;;;;;;;;;5052809;28;19913;-21
2023/09/05 06:00:07;;;;;;;;;;;;;;;;;;5054446;28;20342;-20
2023/09/05 06:02:33;;;;;;;;;;;;;;;;;;5053706;28;19924;-20
2023/09/05 06:04:59;;;;;;;;;;;;;;;;;;5054442;28;19920;-22
2023/09/05 06:07:25;;;;;;;;;;;;;;;;;;5053063;28;19909;-21
2023/09/05 06:09:51;;;;;;;;;;;;;;;;;;5052968;28;19915;-20
2023/09/05 06:12:17;;;;;;;;;;;;;;;;;;5053809;28;19970;-23
2023/09/05 06:14:43;;;;;;;;;;;;;;;;;;5053327;28;19912;-21
2023/09/05 06:17:09;;;;;;;;;;;;;;;;;;5053210;28;19974;-20
2023/09/05 06:19:35;;;;;;;;;;;;;;;;;;5053138;28;19909;-22
2023/09/05 06:22:01;;;;;;;;;;;;;;;;;;5052041;28;19992;-20
2023/09/05 06:24:27;;;;;;;;;;;;;;;;;;5053149;28;20390;-21
2023/09/05 06:26:53;;;;;;;;;;;;;;;;;;5053143;28;19975;-20
2023/09/05 06:29:19;;;;;;;;;;;;;;;;;;5053261;28;20295;-25
2023/09/05 06:31:45;;;;;;;;;;;;;;;;;;5053265;28;19916;-21
2023/09/05 06:34:11;;;;;;;;;;;;;;;;;;5053271;28;19916;-20
2023/09/05 06:36:37;;;;;;;;;;;;;;;;;;5053116;28;19920;-20
2023/09/05 06:39:03;;;;;;;;;;;;;;;;;;5054167;28;19909;-22
2023/09/05 06:41:29;;;;;;;;;;;;;;;;;;5053713;28;19917;-21
2023/09/05 06:43:55;;;;;;;;;;;;;;;;;;5053828;28;19920;-23
2023/09/05 06:46:21;;;;;;;;;;;;;;;;;;5053988;28;19909;-21
2023/09/05 06:48:47;;;;;;;;;;;;;;;;;;5052813;28;20339;-19
2023/09/05 06:51:13;;;;;;;;;;;;;;;;;;5053728;28;19908;-20
2023/09/05 06:53:40;;;;;;;;;;;;;;;;;;5053748;28;19915;-23
2023/09/05 06:56:06;;;;;;;;;;;;;;;;;;5053975;28;20255;-21
2023/09/05 06:58:32;;;;;;;;;;;;;;;;;;5052900;28;19913;-22
2023/09/05 07:00:58;;;;;;;;;;;;;;;;;;5053560;28;20331;-20
2023/09/05 07:03:24;;;;;;;;;;;;;;;;;;5053568;28;19932;-20
2023/09/05 07:05:50;;;;;;;;;;;;;;;;;;5055771;28;19909;-20
2023/09/05 07:08:16;;;;;;;;;;;;;;;;;;5057236;28;19909;-21
2023/09/05 07:10:42;;;;;;;;;;;;;;;;;;5057067;28;20255;-21
2023/09/05 07:13:08;;;;;;;;;;;;;;;;;;5056829;28;20011;-23
2023/09/05 07:15:34;;;;;;;;;;;;;;;;;;5055645;28;19913;-21
2023/09/05 07:18:00;;;;;;;;;;;;;;;;;;5056552;28;19912;-20
2023/09/05 07:20:26;;;;;;;;;;;;;;;;;;5056772;28;19919;-20
2023/09/05 07:22:52;;;;;;;;;;;;;;;;;;5056330;28;19909;-22
2023/09/05 07:25:18;;;;;;;;;;;;;;;;;;5056122;28;20339;-21
2023/09/05 07:27:44;;;;;;;;;;;;;;;;;;5056505;28;20019;-22
2023/09/05 07:30:10;;;;;;;;;;;;;;;;;;5056390;28;19913;-20
2023/09/05 07:32:36;;;;;;;;;;;;;;;;;;5056601;28;19909;-20
2023/09/05 07:35:03;;;;;;;;;;;;;;;;;;5056409;28;20011;-22
2023/09/05 07:37:30;;;;;;;;;;;;;;;;;;5056420;28;19913;-20
2023/09/05 07:39:56;;;;;;;;;;;;;;;;;;5055449;28;20011;-19
2023/09/05 07:42:21;;;;;;;;;;;;;;;;;;5056791;28;19960;-23
2023/09/05 07:44:47;;;;;;;;;;;;;;;;;;5056552;28;20285;-21
2023/09/05 07:47:13;;;;;;;;;;;;;;;;;;5055245;28;19916;-21
2023/09/05 07:49:41;;;;;;;;;;;;;;;;;;5056458;28;19909;-21
2023/09/05 07:52:06;;;;;;;;;;;;;;;;;;5056310;28;19913;-22
2023/09/05 07:54:35;;;;;;;;;;;;;;;;;;5056400;28;20059;-20
2023/09/05 07:57:01;;;;;;;;;;;;;;;;;;5056176;28;20355;-21
2023/09/05 07:59:27;;;;;;;;;;;;;;;;;;5056095;28;20001;-21
2023/09/05 08:01:55;;;;;;;;;;;;;;;;;;5056067;28;19996;-19
2023/09/05 08:04:21;;;;;;;;;;;;;;;;;;5056002;28;19982;-21
2023/09/05 08:06:48;;;;;;;;;;;;;;;;;;5056103;28;19974;-21
2023/09/05 08:09:14;;;;;;;;;;;;;;;;;;5055809;28;19909;-20
2023/09/05 08:11:40;;;;;;;;;;;;;;;;;;5056228;28;20266;-21
2023/09/05 08:14:06;;;;;;;;;;;;;;;;;;5055998;28;19981;-22
2023/09/05 08:16:33;;;;;;;;;;;;;;;;;;5055532;28;19909;-22
2023/09/05 08:18:59;;;;;;;;;;;;;;;;;;5055702;28;19932;-21
2023/09/05 08:21:26;;;;;;;;;;;;;;;;;;5055871;28;19908;-20
2023/09/05 08:23:52;;;;;;;;;;;;;;;;;;5055785;28;19982;-23
2023/09/05 08:26:18;;;;;;;;;;;;;;;;;;5055680;28;19916;-22
2023/09/05 08:28:45;;;;;;;;;;;;;;;;;;5055514;28;19913;-21
2023/09/05 08:31:11;;;;;;;;;;;;;;;;;;5055589;28;19923;-20
2023/09/05 08:33:37;;;;;;;;;;;;;;;;;;5055218;28;19909;-21
2023/09/05 08:36:03;;;;;;;;;;;;;;;;;;5055130;28;19919;-20
2023/09/05 08:38:29;;;;;;;;;;;;;;;;;;5054312;28;19924;-21
2023/09/05 08:40:55;;;;;;;;;;;;;;;;;;5054971;28;19908;-22
2023/09/05 08:43:21;;;;;;;;;;;;;;;;;;5054595;28;20312;-21
2023/09/05 08:45:47;;;;;;;;;;;;;;;;;;5054595;28;19913;-20
2023/09/05 08:48:13;;;;;;;;;;;;;;;;;;5054586;28;20291;-20
2023/09/05 08:50:39;;;;;;;;;;;;;;;;;;5054480;28;19953;-20
2023/09/05 08:53:05;;;;;;;;;;;;;;;;;;5054473;28;19967;-21
2023/09/05 08:55:31;;;;;;;;;;;;;;;;;;5053460;28;19912;-20
2023/09/05 08:57:59;;;;;;;;;;;;;;;;;;5054670;28;20016;-21
2023/09/05 09:00:26;;;;;;;;;;;;;;;;;;5054391;28;19944;-20
2023/09/05 09:02:52;;;;;;;;;;;;;;;;;;5054606;28;19932;-22
2023/09/05 09:05:18;;;;;;;;;;;;;;;;;;5053200;28;19909;-20
2023/09/05 09:07:44;;;;;;;;;;;;;;;;;;5053097;28;19924;-20
2023/09/05 09:10:10;;;;;;;;;;;;;;;;;;5054169;28;19944;-20
2023/09/05 09:12:36;;;;;;;;;;;;;;;;;;5052974;28;19909;-21
2023/09/05 09:15:01;;;;;;;;;;;;;;;;;;5054362;28;19909;-19
2023/09/05 09:17:27;;;;;;;;;;;;;;;;;;5052683;28;19912;-21
2023/09/05 09:19:53;;;;;;;;;;;;;;;;;;5054166;28;19959;-22
2023/09/05 09:22:19;;;;;;;;;;;;;;;;;;5054285;28;20204;-22
2023/09/05 09:24:45;;;;;;;;;;;;;;;;;;5055042;28;20269;-21
2023/09/05 09:27:11;;;;;;;;;;;;;;;;;;5053906;28;19909;-20
2023/09/05 09:29:37;;;;;;;;;;;;;;;;;;5054517;28;20320;-20
2023/09/05 09:32:03;;;;;;;;;;;;;;;;;;5054497;28;19973;-21
2023/09/05 09:34:30;;;;;;;;;;;;;;;;;;5054302;28;20274;-22
2023/09/05 09:36:56;;;;;;;;;;;;;;;;;;5054222;28;19952;-22
2023/09/05 09:39:22;;;;;;;;;;;;;;;;;;5054321;28;20232;-21
2023/09/05 09:41:48;;;;;;;;;;;;;;;;;;5054591;28;20358;-22
2023/09/05 09:44:14;;;;;;;;;;;;;;;;;;5053316;28;19921;-24
2023/09/05 09:46:40;;;;;;;;;;;;;;;;;;5053236;28;19931;-20
2023/09/05 09:49:06;;;;;;;;;;;;;;;;;;5054122;28;20003;-22
2023/09/05 09:51:31;;;;;;;;;;;;;;;;;;5054274;28;19916;-21
2023/09/05 09:53:57;;;;;;;;;;;;;;;;;;5054136;28;19909;-20
2023/09/05 09:56:24;;;;;;;;;;;;;;;;;;5054422;28;19999;-20
2023/09/05 09:58:50;;;;;;;;;;;;;;;;;;5054448;28;19936;-20
2023/09/05 10:01:16;;;;;;;;;;;;;;;;;;5054268;28;20343;-20
2023/09/05 10:03:42;;;;;;;;;;;;;;;;;;5053985;28;20304;-22
2023/09/05 10:06:08;;;;;;;;;;;;;;;;;;5054178;28;19909;-22
2023/09/05 10:08:34;;;;;;;;;;;;;;;;;;5054410;28;19912;-21
2023/09/05 10:11:02;;;;;;;;;;;;;;;;;;5052536;28;20283;-21
2023/09/05 10:13:32;;;;;;;;;;;;;;;;;;5053906;28;19966;-21
2023/09/05 10:16:00;;;;;;;;;;;;;;;;;;5054027;28;19905;-22
2023/09/05 10:18:26;;;;;;;;;;;;;;;;;;5052797;28;19960;-20
2023/09/05 10:20:54;;;;;;;;;;;;;;;;;;5054240;28;19948;-22
2023/09/05 10:23:20;;;;;;;;;;;;;;;;;;5053831;28;19909;-21
2023/09/05 10:25:46;;;;;;;;;;;;;;;;;;5053804;28;19909;-22
2023/09/05 10:28:12;;;;;;;;;;;;;;;;;;5053815;28;19909;-21
2023/09/05 10:30:39;;;;;;;;;;;;;;;;;;5053954;28;19908;-22
2023/09/05 10:33:05;;;;;;;;;;;;;;;;;;5053993;28;20244;-21
2023/09/05 10:35:31;;;;;;;;;;;;;;;;;;5053857;28;19916;-20
2023/09/05 10:37:57;;;;;;;;;;;;;;;;;;5053736;28;19913;-21
2023/09/05 10:40:26;;;;;;;;;;;;;;;;;;5056927;28;19908;-22
2023/09/05 10:42:52;;;;;;;;;;;;;;;;;;5056344;28;19909;-20
2023/09/05 10:45:17;;;;;;;;;;;;;;;;;;5057478;28;20251;-20
2023/09/05 10:47:43;;;;;;;;;;;;;;;;;;5057273;28;19909;-21
2023/09/05 10:50:09;;;;;;;;;;;;;;;;;;5057379;28;19909;-21
2023/09/05 10:52:35;;;;;;;;;;;;;;;;;;5056406;28;19909;-22
2023/09/05 10:55:01;;;;;;;;;;;;;;;;;;5057520;28;19909;-21
2023/09/05 10:57:27;;;;;;;;;;;;;;;;;;5055684;28;20319;-20
2023/09/05 10:59:53;;;;;;;;;;;;;;;;;;5056844;28;19947;-20
2023/09/05 11:02:22;;;;;;;;;;;;;;;;;;5055291;28;19917;-21
2023/09/05 11:04:48;;;;;;;;;;;;;;;;;;5056598;28;19916;-22
2023/09/05 11:07:18;;;;;;;;;;;;;;;;;;5056539;28;19913;-20
2023/09/05 11:09:49;;;;;;;;;;;;;;;;;;5056508;28;20304;-20
2023/09/05 11:12:15;;;;;;;;;;;;;;;;;;5055280;28;19908;-22
2023/09/05 11:14:41;;;;;;;;;;;;;;;;;;5056437;28;20343;-21
2023/09/05 11:17:08;;;;;;;;;;;;;;;;;;5055065;28;19913;-23
2023/09/05 11:19:35;;;;;;;;;;;;;;;;;;5056247;28;19912;-21
2023/09/05 11:22:01;;;;;;;;;;;;;;;;;;5056477;28;19909;-22
2023/09/05 11:24:27;;;;;;;;;;;;;;;;;;5056656;28;20004;-21
2023/09/05 11:26:53;;;;;;;;;;;;;;;;;;5056656;28;19909;-21
2023/09/05 11:29:19;;;;;;;;;;;;;;;;;;5056562;28;20407;-20
2023/09/05 11:31:45;;;;;;;;;;;;;;;;;;5056583;28;20247;-23
2023/09/05 11:34:11;;;;;;;;;;;;;;;;;;5056700;28;19909;-21
2023/09/05 11:36:37;;;;;;;;;;;;;;;;;;5056510;28;19935;-22
2023/09/05 11:39:06;;;;;;;;;;;;;;;;;;5056489;28;20348;-20
2023/09/05 11:41:33;;;;;;;;;;;;;;;;;;5055330;28;19909;-22
2023/09/05 11:43:59;;;;;;;;;;;;;;;;;;5056825;28;19909;-21
2023/09/05 11:46:25;;;;;;;;;;;;;;;;;;5055404;28;20323;-20
2023/09/05 11:48:51;;;;;;;;;;;;;;;;;;5056156;28;20352;-21
2023/09/05 11:51:17;;;;;;;;;;;;;;;;;;5055490;28;20339;-21
2023/09/05 11:53:43;;;;;;;;;;;;;;;;;;5054946;28;19975;-21
2023/09/05 11:56:09;;;;;;;;;;;;;;;;;;5056329;28;19916;-20
2023/09/05 11:58:35;;;;;;;;;;;;;;;;;;5056124;28;19919;-20
2023/09/05 12:01:01;;;;;;;;;;;;;;;;;;5056378;28;20362;-21
2023/09/05 12:03:27;;;;;;;;;;;;;;;;;;5054690;28;19981;-22
2023/09/05 12:05:53;;;;;;;;;;;;;;;;;;5055916;28;19908;-20
2023/09/05 12:08:20;;;;;;;;;;;;;;;;;;5055951;28;19909;-20
2023/09/05 12:10:52;;;;;;;;;;;;;;;;;;5055923;28;19909;-20
2023/09/05 12:13:18;;;;;;;;;;;;;;;;;;5055843;28;20247;-21
2023/09/05 12:15:45;;;;;;;;;;;;;;;;;;5056093;28;20002;-21
2023/09/05 12:18:11;;;;;;;;;;;;;;;;;;5054477;28;20004;-20
2023/09/05 12:20:37;;;;;;;;;;;;;;;;;;5055763;28;19916;-20
2023/09/05 12:23:03;;;;;;;;;;;;;;;;;;5055679;28;19909;-21
2023/09/05 12:25:29;;;;;;;;;;;;;;;;;;5055433;28;19909;-21
2023/09/05 12:27:55;;;;;;;;;;;;;;;;;;5055538;28;19909;-22
2023/09/05 12:30:21;;;;;;;;;;;;;;;;;;5054552;28;19916;-22
2023/09/05 12:32:47;;;;;;;;;;;;;;;;;;5055472;28;19909;-21
2023/09/05 12:35:13;;;;;;;;;;;;;;;;;;5055609;28;19915;-20
2023/09/05 12:37:39;;;;;;;;;;;;;;;;;;5055934;28;19935;-21
2023/09/05 12:40:06;;;;;;;;;;;;;;;;;;5055473;28;20013;-22
2023/09/05 12:42:32;;;;;;;;;;;;;;;;;;5054308;28;19919;-20
2023/09/05 12:44:58;;;;;;;;;;;;;;;;;;5055551;28;19952;-21
2023/09/05 12:47:24;;;;;;;;;;;;;;;;;;5055451;28;20341;-22
2023/09/05 12:49:51;;;;;;;;;;;;;;;;;;5054151;28;20303;-21
2023/09/05 12:52:20;;;;;;;;;;;;;;;;;;5055066;28;20304;-21
2023/09/05 12:54:48;;;;;;;;;;;;;;;;;;5055231;28;19916;-20
2023/09/05 12:57:14;;;;;;;;;;;;;;;;;;5054837;28;20066;-21
2023/09/05 12:59:41;;;;;;;;;;;;;;;;;;5053843;28;19919;-22
2023/09/05 13:02:07;;;;;;;;;;;;;;;;;;5053731;28;19952;-20
2023/09/05 13:04:33;;;;;;;;;;;;;;;;;;5054971;28;19984;-21
2023/09/05 13:06:59;;;;;;;;;;;;;;;;;;5055062;28;19909;-21
2023/09/05 13:09:24;;;;;;;;;;;;;;;;;;5055132;28;19913;-21
2023/09/05 13:11:51;;;;;;;;;;;;;;;;;;5054655;28;19909;-21
2023/09/05 13:14:17;;;;;;;;;;;;;;;;;;5053602;28;19913;-20
2023/09/05 13:16:43;;;;;;;;;;;;;;;;;;5053607;28;19920;-22
2023/09/05 13:19:09;;;;;;;;;;;;;;;;;;5054735;28;19909;-23
2023/09/05 13:21:35;;;;;;;;;;;;;;;;;;5054899;28;19909;-22
2023/09/05 13:24:01;;;;;;;;;;;;;;;;;;5054302;28;19909;-21
2023/09/05 13:26:28;;;;;;;;;;;;;;;;;;5054489;28;19909;-22
2023/09/05 13:28:54;;;;;;;;;;;;;;;;;;5054892;28;20331;-23
2023/09/05 13:31:20;;;;;;;;;;;;;;;;;;5054360;28;20008;-22
2023/09/05 13:33:46;;;;;;;;;;;;;;;;;;5053314;28;19908;-21
2023/09/05 13:36:12;;;;;;;;;;;;;;;;;;5054571;28;19913;-21
2023/09/05 13:38:38;;;;;;;;;;;;;;;;;;5054131;28;20335;-22
2023/09/05 13:41:04;;;;;;;;;;;;;;;;;;5054345;28;19999;-22
2023/09/05 13:43:30;;;;;;;;;;;;;;;;;;5054309;28;20251;-22
2023/09/05 13:45:56;;;;;;;;;;;;;;;;;;5054406;28;19909;-22
2023/09/05 13:48:22;;;;;;;;;;;;;;;;;;5054186;28;20249;-21
2023/09/05 13:50:48;;;;;;;;;;;;;;;;;;5054545;28;19928;-22
2023/09/05 13:53:16;;;;;;;;;;;;;;;;;;5054001;28;19913;-23
2023/09/05 13:55:42;;;;;;;;;;;;;;;;;;5054014;28;19959;-21
2023/09/05 13:58:09;;;;;;;;;;;;;;;;;;5054078;28;19956;-21
2023/09/05 14:00:35;;;;;;;;;;;;;;;;;;5053895;28;19924;-34
2023/09/05 14:03:00;;;;;;;;;;;;;;;;;;5053579;28;20278;-21
2023/09/05 14:05:26;;;;;;;;;;;;;;;;;;5054017;28;19909;-23
2023/09/05 14:07:52;;;;;;;;;;;;;;;;;;5053995;28;19947;-22
2023/09/05 14:10:18;;;;;;;;;;;;;;;;;;5052622;28;20256;-22
2023/09/05 14:12:44;;;;;;;;;;;;;;;;;;5052566;28;19920;-22
2023/09/05 14:15:10;;;;;;;;;;;;;;;;;;5055627;28;20340;-21
2023/09/05 14:17:36;;;;;;;;;;;;;;;;;;5057688;28;19913;-24
2023/09/05 14:20:02;;;;;;;;;;;;;;;;;;5057503;28;19970;-21
2023/09/05 14:22:28;;;;;;;;;;;;;;;;;;5057458;28;19999;-22
2023/09/05 14:24:54;;;;;;;;;;;;;;;;;;5057661;28;19974;-22
2023/09/05 14:27:20;;;;;;;;;;;;;;;;;;5056373;28;19909;-20
2023/09/05 14:29:47;;;;;;;;;;;;;;;;;;5056378;28;19917;-22
2023/09/05 14:32:13;;;;;;;;;;;;;;;;;;5057687;28;19916;-21
2023/09/05 14:34:39;;;;;;;;;;;;;;;;;;5057723;28;20232;-24
2023/09/05 14:37:05;;;;;;;;;;;;;;;;;;5057656;28;19928;-22
2023/09/05 14:39:32;;;;;;;;;;;;;;;;;;5057437;28;19909;-22
2023/09/05 14:41:58;;;;;;;;;;;;;;;;;;5057433;28;19924;-21
2023/09/05 14:44:24;;;;;;;;;;;;;;;;;;5057475;28;19919;-21
2023/09/05 14:46:50;;;;;;;;;;;;;;;;;;5057324;28;19988;-21
2023/09/05 14:49:16;;;;;;;;;;;;;;;;;;5057426;28;19999;-32
2023/09/05 14:51:42;;;;;;;;;;;;;;;;;;5057450;28;19915;-22
2023/09/05 14:54:08;;;;;;;;;;;;;;;;;;5057667;28;19909;-21
2023/09/05 14:56:35;;;;;;;;;;;;;;;;;;5057303;28;19913;-21
2023/09/05 14:59:01;;;;;;;;;;;;;;;;;;5057550;28;19920;-21
2023/09/05 15:01:27;;;;;;;;;;;;;;;;;;5057233;28;19909;-22
2023/09/05 15:03:53;;;;;;;;;;;;;;;;;;5056800;28;19921;-21
2023/09/05 15:06:19;;;;;;;;;;;;;;;;;;5056888;28;19966;-21
2023/09/05 15:08:45;;;;;;;;;;;;;;;;;;5056958;28;19948;-20
2023/09/05 15:11:11;;;;;;;;;;;;;;;;;;5057135;28;19996;-21
2023/09/05 15:13:38;;;;;;;;;;;;;;;;;;5056583;28;19908;-24
2023/09/05 15:16:05;;;;;;;;;;;;;;;;;;5056529;28;20036;-22
2023/09/05 15:18:31;;;;;;;;;;;;;;;;;;5056135;28;19913;-21
2023/09/05 15:20:58;;;;;;;;;;;;;;;;;;5055205;28;19909;-23
2023/09/05 15:23:23;;;;;;;;;;;;;;;;;;5056259;28;20012;-22
2023/09/05 15:25:49;;;;;;;;;;;;;;;;;;5055044;28;19948;-20
2023/09/05 15:28:15;;;;;;;;;;;;;;;;;;5056522;28;19909;-20
2023/09/05 15:30:41;;;;;;;;;;;;;;;;;;5056296;28;20314;-21
2023/09/05 15:33:07;;;;;;;;;;;;;;;;;;5056278;28;20008;-21
2023/09/05 15:35:33;;;;;;;;;;;;;;;;;;5056256;28;19916;-21
2023/09/05 15:37:59;;;;;;;;;;;;;;;;;;5055392;28;20259;-22
2023/09/05 15:40:25;;;;;;;;;;;;;;;;;;5056664;28;20297;-20
2023/09/05 15:42:51;;;;;;;;;;;;;;;;;;5056660;28;19909;-21
2023/09/05 15:45:17;;;;;;;;;;;;;;;;;;5056823;28;19962;-22
2023/09/05 15:47:43;;;;;;;;;;;;;;;;;;5056391;28;19909;-22
2023/09/05 15:50:09;;;;;;;;;;;;;;;;;;5056290;28;19916;-21
2023/09/05 15:52:35;;;;;;;;;;;;;;;;;;5056110;28;20251;-21
2023/09/05 15:55:01;;;;;;;;;;;;;;;;;;5056645;28;19909;-20
2023/09/05 15:57:27;;;;;;;;;;;;;;;;;;5056092;28;20004;-20
2023/09/05 15:59:56;;;;;;;;;;;;;;;;;;5057241;28;19909;-20
2023/09/05 16:02:22;;;;;;;;;;;;;;;;;;5055954;28;19909;-22
2023/09/05 16:04:48;;;;;;;;;;;;;;;;;;5056131;28;19928;-21
2023/09/05 16:07:14;;;;;;;;;;;;;;;;;;5055809;28;19909;-22
2023/09/05 16:09:40;;;;;;;;;;;;;;;;;;5055687;28;20374;-21
2023/09/05 16:12:06;;;;;;;;;;;;;;;;;;5055585;28;19909;-22
2023/09/05 16:14:32;;;;;;;;;;;;;;;;;;5055957;28;19908;-22
2023/09/05 16:16:58;;;;;;;;;;;;;;;;;;5055831;28;19917;-22
2023/09/05 16:19:24;;;;;;;;;;;;;;;;;;5055979;28;19909;-21
2023/09/05 16:21:50;;;;;;;;;;;;;;;;;;5055648;28;20248;-21
2023/09/05 16:24:16;;;;;;;;;;;;;;;;;;5055753;28;20251;-21
2023/09/05 16:26:43;;;;;;;;;;;;;;;;;;5055537;28;19928;-23
2023/09/05 16:29:10;;;;;;;;;;;;;;;;;;5055843;28;19948;-21
2023/09/05 16:31:36;;;;;;;;;;;;;;;;;;5054453;28;20011;-23
2023/09/05 16:34:02;;;;;;;;;;;;;;;;;;5054291;28;19948;-21
2023/09/05 16:36:28;;;;;;;;;;;;;;;;;;5054966;28;19909;-22
2023/09/05 16:38:55;;;;;;;;;;;;;;;;;;5055888;28;19986;-20